Southeast Iowa Regional Airport Burlington US
ICAO: KBRL
IATA: BRL
Category: Medium
Scheduled Services: Yes

Elevation: 698 ft
TransAlt. 18000 ft.

Airport Communications:
ASOS:118.025
CHICAGO CNTR:135.6
FORT DODGE RDO:122.65
CTAF/UNICOM:123

KBRL Zoom In..

If Map Doesn't Load, Click Here

Runways:

(A) RW 12 length 5351 ft width 100 ft
---- / hdg 119

(B) RW 18 length 6701 ft width 150 ft
---- / hdg 179

(C) RW 30 length 5351 ft width 100 ft
---- / hdg 299

(D) RW 36 length 6701 ft width 150 ft
ILS 108.90 / hdg 359

Location; KBRL
Day. 23 / Time. 20.53 Zulu
* Altimeter: 30.04
* Temperature: 24° c. 75.2°f.
* Wind from: 170° Speed 03 kn.
Dewpoint: 09° c.
Visibility: 10 Statute Miles.
Clouds: Clear (automated report).

KBRL 232053Z AUTO 17003KT 10SM CLR 24/09 A3004 RMK AO2 SLP172 T02440089 56023


Wind From 170°
Speed 03 kn.

 
 
jpsmedia.com for Web Design worldairports.se 2018   terms of use